Time;durP1;ratioP1;P1;durP2;ratioP2;P2;SDS_P1;SDS_P2;PMS_P1;PMS_P2;Temp;Humidity;BMP_temperature;BMP_pressure;BME280_temperature;BME280_humidity;BME280_pressure;Samples;Min_cycle;Max_cycle;Signal;HPM_P1;HPM_P2
2022/06/22 04:01:19;;;;;;;5.35;5.05;;;13.70;99.90;;;;;;5578641;23;20255;-73
2022/06/22 04:03:46;;;;;;;6.53;6.13;;;13.70;99.90;;;;;;4959666;28;20217;-73
2022/06/22 04:06:22;;;;;;;9.23;6.20;;;13.70;99.90;;;;;;4963747;28;20212;-73
2022/06/22 04:08:50;;;;;;;5.78;5.40;;;13.80;99.90;;;;;;4957800;28;20571;-73
2022/06/22 04:11:24;;;;;;;5.68;5.38;;;13.80;99.90;;;;;;4961935;28;20220;-73
2022/06/22 04:13:58;;;;;;;6.15;5.75;;;13.80;99.90;;;;;;4973561;28;20207;-73
2022/06/22 04:16:31;;;;;;;6.13;5.72;;;13.80;99.90;;;;;;4973300;28;20215;-73
2022/06/22 04:19:02;;;;;;;6.07;5.68;;;13.90;99.90;;;;;;4989599;23;21786;-71
2022/06/22 04:21:32;;;;;;;6.65;6.05;;;14.00;99.90;;;;;;4982933;28;20201;-72
2022/06/22 04:24:03;;;;;;;6.50;6.10;;;14.10;99.90;;;;;;4973898;28;20236;-71
2022/06/22 04:26:35;;;;;;;6.17;5.87;;;14.70;99.90;;;;;;4980233;28;20486;-72
2022/06/22 04:29:07;;;;;;;5.27;5.00;;;15.60;99.90;;;;;;4985804;28;20507;-69
2022/06/22 04:31:40;;;;;;;6.10;5.60;;;16.40;99.90;;;;;;4983738;28;20459;-69
2022/06/22 04:34:12;;;;;;;5.40;5.10;;;17.10;99.90;;;;;;4992742;28;20459;-69
2022/06/22 04:36:44;;;;;;;5.53;5.00;;;17.60;99.90;;;;;;4992915;28;20480;-70
2022/06/22 04:39:19;;;;;;;4.50;4.33;;;18.10;99.90;;;;;;4992862;28;20483;-71
2022/06/22 04:41:46;;;;;;;5.00;4.70;;;18.50;99.90;;;;;;4992430;28;20459;-69
2022/06/22 04:44:15;;;;;;;5.10;4.83;;;19.00;99.90;;;;;;4992398;28;20483;-70
2022/06/22 04:46:45;;;;;;;4.83;4.63;;;19.40;99.90;;;;;;4992589;28;20586;-71
2022/06/22 04:49:21;;;;;;;5.10;4.90;;;19.70;99.90;;;;;;4992382;28;21013;-71
2022/06/22 04:51:51;;;;;;;4.90;4.73;;;20.10;99.90;;;;;;4993091;28;20463;-71
2022/06/22 04:54:25;;;;;;;4.73;4.53;;;20.30;99.90;;;;;;4988721;28;20459;-67
2022/06/22 04:56:54;;;;;;;5.27;5.00;;;20.80;99.90;;;;;;4973406;28;20459;-70
2022/06/22 04:59:22;;;;;;;5.40;5.10;;;21.10;99.90;;;;;;4988873;28;20525;-70
2022/06/22 05:01:53;;;;;;;4.60;4.50;;;21.30;99.90;;;;;;4991318;28;20473;-69
2022/06/22 05:04:23;;;;;;;5.20;4.70;;;21.50;99.90;;;;;;4992596;28;20479;-71
2022/06/22 05:07:02;;;;;;;4.53;4.40;;;21.60;99.90;;;;;;4988945;28;20483;-69
2022/06/22 05:09:35;;;;;;;5.60;5.37;;;21.80;99.90;;;;;;4982716;28;20485;-69
2022/06/22 05:12:03;;;;;;;4.53;4.33;;;21.70;99.90;;;;;;4990516;28;20462;-71
2022/06/22 05:14:32;;;;;;;5.10;4.80;;;21.70;99.90;;;;;;4974787;28;20464;-70
2022/06/22 05:17:04;;;;;;;5.10;4.83;;;22.00;99.90;;;;;;4978014;28;20558;-71
2022/06/22 05:19:37;;;;;;;4.60;4.40;;;22.40;99.90;;;;;;4983801;28;20497;-68
2022/06/22 05:22:13;;;;;;;4.83;4.43;;;22.80;99.90;;;;;;4988463;28;20467;-70
2022/06/22 05:24:43;;;;;;;6.43;4.90;;;22.80;99.90;;;;;;4992214;28;20520;-69
2022/06/22 05:27:12;;;;;;;4.73;4.53;;;22.80;99.90;;;;;;4990040;28;20807;-72
2022/06/22 05:29:44;;;;;;;4.43;4.10;;;23.00;99.90;;;;;;4990090;28;20594;-70
2022/06/22 05:32:15;;;;;;;4.80;4.60;;;23.30;99.90;;;;;;4986674;28;20471;-71
2022/06/22 05:34:45;;;;;;;4.00;3.90;;;23.10;99.90;;;;;;4991863;28;20481;-71
2022/06/22 05:37:20;;;;;;;5.37;4.97;;;23.20;99.90;;;;;;4976674;28;20470;-71
2022/06/22 05:39:47;;;;;;;4.30;4.10;;;23.30;99.90;;;;;;4980386;28;20851;-71
2022/06/22 05:42:15;;;;;;;3.63;3.53;;;23.60;99.90;;;;;;4990873;28;21012;-71
2022/06/22 05:44:43;;;;;;;4.60;4.40;;;23.70;99.90;;;;;;4988543;28;20856;-71
2022/06/22 05:47:27;;;;;;;4.57;4.37;;;23.40;99.90;;;;;;4989234;28;20471;-71
2022/06/22 05:49:59;;;;;;;5.17;4.77;;;23.50;99.90;;;;;;4984167;28;20507;-71
2022/06/22 05:52:34;;;;;;;4.40;4.30;;;24.00;99.90;;;;;;4986544;28;20757;-69
2022/06/22 05:55:06;;;;;;;4.63;4.23;;;24.00;99.90;;;;;;4992773;28;20470;-71
2022/06/22 05:57:39;;;;;;;5.03;4.83;;;23.60;99.90;;;;;;4990200;28;20466;-71
2022/06/22 06:00:13;;;;;;;5.07;4.67;;;23.30;99.90;;;;;;4985166;28;20490;-71
2022/06/22 06:02:50;;;;;;;5.40;5.10;;;23.60;99.90;;;;;;4988650;28;20469;-69
2022/06/22 06:05:21;;;;;;;3.83;3.70;;;23.50;99.90;;;;;;4982244;28;20587;-70
2022/06/22 06:07:51;;;;;;;4.53;4.23;;;23.90;99.90;;;;;;4977144;28;20478;-71
2022/06/22 06:10:23;;;;;;;10.50;4.33;;;23.50;99.90;;;;;;4991371;28;20537;-71
2022/06/22 06:12:57;;;;;;;4.53;4.33;;;22.60;99.90;;;;;;4991311;28;20473;-69
2022/06/22 06:15:24;;;;;;;5.33;4.90;;;22.90;99.90;;;;;;4982887;28;20462;-69
2022/06/22 06:17:58;;;;;;;5.20;4.97;;;22.40;99.90;;;;;;4990604;28;20477;-71
2022/06/22 06:20:29;;;;;;;5.10;4.90;;;23.00;99.90;;;;;;4990369;28;20559;-71
2022/06/22 06:23:10;;;;;;;5.13;4.83;;;23.80;99.90;;;;;;4991671;28;20465;-71
2022/06/22 06:28:45;;;;;;;5.27;4.93;;;24.10;99.90;;;;;;4952432;28;20493;-69
2022/06/22 06:31:18;;;;;;;4.70;4.40;;;24.30;99.90;;;;;;4993447;28;20462;-69
2022/06/22 06:33:46;;;;;;;4.77;4.57;;;24.80;99.90;;;;;;4987853;28;20468;-70
2022/06/22 06:36:18;;;;;;;4.23;4.03;;;25.40;99.90;;;;;;4992063;28;20573;-71
2022/06/22 06:38:51;;;;;;;4.80;4.50;;;25.60;99.90;;;;;;4986940;28;20471;-68
2022/06/22 06:41:23;;;;;;;4.30;3.97;;;25.80;99.30;;;;;;4987888;28;20472;-71
2022/06/22 06:43:54;;;;;;;3.37;3.27;;;26.00;98.70;;;;;;4989999;28;20485;-71
2022/06/22 06:46:24;;;;;;;2.87;2.87;;;26.40;98.10;;;;;;4991460;28;20848;-70
2022/06/22 06:48:59;;;;;;;3.47;3.37;;;26.90;96.70;;;;;;4988709;28;20808;-69
2022/06/22 06:51:29;;;;;;;4.17;4.07;;;27.00;95.00;;;;;;4974103;28;20470;-71
2022/06/22 06:54:02;;;;;;;4.20;3.90;;;27.00;95.00;;;;;;4982169;28;20463;-71
2022/06/22 06:56:33;;;;;;;4.10;3.90;;;26.90;95.40;;;;;;4990745;28;20472;-68
2022/06/22 06:59:03;;;;;;;3.57;3.37;;;27.20;94.60;;;;;;4989649;28;20573;-70
2022/06/22 07:01:36;;;;;;;3.13;3.03;;;26.90;94.90;;;;;;4985641;28;20466;-72
2022/06/22 07:04:08;;;;;;;2.57;2.47;;;27.20;93.60;;;;;;4989245;28;20489;-72
2022/06/22 07:06:35;;;;;;;2.43;2.40;;;27.40;91.20;;;;;;4985461;28;20474;-72
2022/06/22 07:09:08;;;;;;;2.50;2.40;;;27.70;89.70;;;;;;4991657;28;20485;-72
2022/06/22 07:11:42;;;;;;;1.73;1.67;;;28.00;90.00;;;;;;4990507;28;20462;-71
2022/06/22 07:14:15;;;;;;;1.70;1.70;;;27.70;84.50;;;;;;4995162;28;20455;-72
2022/06/22 07:16:42;;;;;;;2.10;2.07;;;27.60;86.10;;;;;;4993205;28;20466;-69
2022/06/22 07:19:17;;;;;;;1.90;1.90;;;27.70;85.80;;;;;;4986578;28;20502;-73
2022/06/22 07:21:49;;;;;;;1.63;1.60;;;27.80;86.60;;;;;;4981038;28;20459;-72
2022/06/22 07:24:21;;;;;;;2.30;2.17;;;28.20;83.70;;;;;;4983039;28;20495;-72
2022/06/22 07:26:55;;;;;;;2.43;2.23;;;27.90;82.70;;;;;;4992932;28;20463;-71
2022/06/22 07:29:28;;;;;;;1.33;1.33;;;27.30;84.40;;;;;;4985466;28;20491;-72
2022/06/22 07:32:00;;;;;;;1.70;1.70;;;27.20;85.70;;;;;;4982316;28;20473;-71
2022/06/22 07:34:34;;;;;;;2.30;2.20;;;27.20;87.00;;;;;;4990399;28;20465;-72
2022/06/22 07:37:11;;;;;;;1.60;1.50;;;27.40;86.90;;;;;;4995521;28;20473;-72
2022/06/22 07:39:43;;;;;;;1.93;1.93;;;27.80;84.90;;;;;;4991807;28;20490;-73
2022/06/22 07:42:12;;;;;;;2.30;2.20;;;27.40;80.90;;;;;;4990795;28;20470;-72
2022/06/22 07:44:39;;;;;;;1.97;1.80;;;27.40;84.90;;;;;;4996270;28;20478;-72
2022/06/22 07:47:12;;;;;;;1.40;1.40;;;27.80;82.60;;;;;;4992694;28;20470;-71
2022/06/22 07:49:46;;;;;;;1.50;1.50;;;27.90;79.70;;;;;;4992790;28;20844;-72
2022/06/22 07:52:15;;;;;;;2.23;2.20;;;28.10;76.80;;;;;;4994233;28;20459;-72
2022/06/22 07:54:46;;;;;;;1.67;1.67;;;28.10;76.80;;;;;;4981743;28;20852;-75
2022/06/22 07:57:20;;;;;;;1.80;1.70;;;27.70;77.00;;;;;;4990944;28;20593;-76
2022/06/22 07:59:51;;;;;;;1.83;1.73;;;27.10;76.00;;;;;;4984015;28;20474;-71
2022/06/22 08:02:20;;;;;;;1.60;1.50;;;27.20;77.60;;;;;;4995101;28;20294;-72
2022/06/22 08:04:54;;;;;;;1.37;1.37;;;27.60;75.10;;;;;;4995922;28;20520;-72
2022/06/22 08:07:24;;;;;;;2.10;2.00;;;27.80;76.50;;;;;;4992205;28;20478;-71
2022/06/22 08:09:59;;;;;;;1.67;1.43;;;28.00;77.10;;;;;;4991994;28;20494;-72
2022/06/22 08:12:30;;;;;;;1.20;1.20;;;28.10;74.60;;;;;;4993230;28;20521;-72
2022/06/22 08:14:57;;;;;;;1.70;1.70;;;28.10;71.70;;;;;;4993939;28;20901;-71
2022/06/22 08:17:37;;;;;;;1.33;1.23;;;27.20;71.10;;;;;;4991522;28;20472;-72
2022/06/22 08:20:07;;;;;;;1.37;1.07;;;27.30;72.30;;;;;;4986604;28;20491;-71
2022/06/22 08:22:34;;;;;;;1.03;1.03;;;27.50;70.00;;;;;;4973746;28;20467;-71
2022/06/22 08:25:04;;;;;;;0.77;0.73;;;27.40;69.70;;;;;;4973620;28;20488;-71
2022/06/22 08:27:31;;;;;;;1.20;1.20;;;27.20;68.80;;;;;;4976870;28;20519;-71
2022/06/22 08:29:59;;;;;;;0.90;0.90;;;27.40;69.50;;;;;;4987807;28;20484;-70
2022/06/22 08:32:30;;;;;;;1.13;1.13;;;27.40;63.90;;;;;;4973402;28;20467;-70
2022/06/22 08:35:04;;;;;;;1.23;1.23;;;27.30;63.10;;;;;;4973932;28;20541;-70
2022/06/22 08:37:37;;;;;;;1.10;1.10;;;27.20;66.80;;;;;;4977331;28;20494;-72
2022/06/22 08:40:17;;;;;;;1.13;1.13;;;27.00;68.40;;;;;;4986758;28;20562;-70
2022/06/22 08:42:53;;;;;;;1.40;1.30;;;26.50;66.00;;;;;;4973007;28;20994;-71
2022/06/22 08:45:37;;;;;;;1.47;1.37;;;26.40;68.50;;;;;;4981725;28;20576;-71
2022/06/22 08:48:36;;;;;;;1.63;1.53;;;26.40;70.00;;;;;;4991459;28;20492;-71
2022/06/22 08:51:18;;;;;;;1.10;1.10;;;26.20;68.10;;;;;;4987565;28;20474;-72
2022/06/22 08:54:21;;;;;;;1.90;1.80;;;26.20;69.20;;;;;;4992546;28;20468;-72
2022/06/22 08:57:04;;;;;;;1.57;1.57;;;25.80;71.10;;;;;;4993040;28;20475;-69
2022/06/22 09:00:04;;;;;;;1.43;1.43;;;25.90;71.50;;;;;;4989774;28;20493;-71
2022/06/22 09:03:02;;;;;;;1.37;1.37;;;26.00;69.90;;;;;;4969166;28;20962;-72
2022/06/22 09:05:47;;;;;;;1.30;1.30;;;25.80;68.90;;;;;;4973194;28;20573;-72
2022/06/22 09:08:39;;;;;;;1.30;1.30;;;25.60;71.30;;;;;;4981110;28;20481;-70
2022/06/22 09:11:21;;;;;;;1.40;1.30;;;25.70;71.50;;;;;;4987566;28;20547;-72
2022/06/22 09:14:00;;;;;;;1.77;1.77;;;26.00;72.60;;;;;;4990607;28;20489;-72
2022/06/22 09:16:45;;;;;;;1.60;1.60;;;26.00;73.70;;;;;;4975246;28;20467;-71
2022/06/22 09:19:27;;;;;;;3.00;2.30;;;26.10;73.70;;;;;;4985465;28;20519;-71
2022/06/22 09:22:02;;;;;;;2.23;2.13;;;26.00;72.10;;;;;;4981412;28;20473;-71
2022/06/22 09:24:40;;;;;;;1.40;1.40;;;25.70;72.60;;;;;;4983710;28;21012;-71
2022/06/22 09:27:15;;;;;;;1.47;1.47;;;25.60;70.90;;;;;;4991353;28;21002;-71
2022/06/22 09:30:10;;;;;;;2.10;2.00;;;25.70;69.80;;;;;;4988646;28;20519;-72
2022/06/22 09:33:34;;;;;;;1.53;1.53;;;25.50;72.30;;;;;;4971169;28;20980;-70
2022/06/22 09:36:33;;;;;;;2.03;2.03;;;25.30;73.70;;;;;;4913179;29;20473;-71
2022/06/22 09:39:22;;;;;;;2.37;2.20;;;25.20;73.50;;;;;;4925666;29;20492;-75
2022/06/22 09:42:01;;;;;;;1.87;1.80;;;24.90;76.80;;;;;;4971941;28;20948;-72
2022/06/22 09:44:55;;;;;;;2.10;2.10;;;24.70;77.10;;;;;;4989838;28;20463;-72
2022/06/22 09:47:39;;;;;;;2.00;1.90;;;24.80;76.40;;;;;;4972013;28;20466;-73
2022/06/22 09:50:45;;;;;;;1.80;1.80;;;24.70;72.60;;;;;;4979882;28;20513;-71
2022/06/22 09:53:51;;;;;;;4.30;2.90;;;24.30;68.30;;;;;;4975363;28;20469;-72
2022/06/22 09:56:38;;;;;;;2.27;2.17;;;24.00;76.30;;;;;;4950252;29;20467;-71
2022/06/22 09:59:36;;;;;;;1.73;1.63;;;24.00;76.50;;;;;;4988366;28;20511;-71
2022/06/22 10:02:22;;;;;;;2.30;2.20;;;24.10;77.70;;;;;;4979838;28;20994;-70
2022/06/22 10:05:34;;;;;;;2.23;2.23;;;24.00;78.40;;;;;;4987633;28;20828;-69
2022/06/22 10:08:13;;;;;;;4.00;3.70;;;24.00;79.60;;;;;;4949098;29;20468;-72
2022/06/22 10:10:50;;;;;;;2.30;2.20;;;24.10;78.50;;;;;;4980799;28;20796;-70
2022/06/22 10:13:41;;;;;;;1.80;1.80;;;24.10;77.00;;;;;;4982898;28;20517;-73
2022/06/22 10:16:32;;;;;;;2.13;2.13;;;24.10;75.70;;;;;;4944132;28;20455;-71
2022/06/22 10:19:17;;;;;;;2.60;2.57;;;24.00;76.90;;;;;;4982839;28;20517;-72
2022/06/22 10:21:56;;;;;;;2.20;2.20;;;24.00;77.10;;;;;;4977485;28;20452;-72
2022/06/22 10:24:43;;;;;;;1.90;1.90;;;23.90;77.30;;;;;;4972014;28;21011;-75
2022/06/22 10:27:31;;;;;;;2.57;2.13;;;23.80;76.10;;;;;;4976478;28;20463;-74
2022/06/22 10:30:19;;;;;;;2.20;2.20;;;23.70;75.80;;;;;;4981608;28;21210;-72
2022/06/22 10:33:10;;;;;;;2.47;2.37;;;23.60;76.10;;;;;;4981645;28;20462;-71
2022/06/22 10:36:07;;;;;;;2.93;2.73;;;23.70;78.00;;;;;;4991668;28;20463;-70
2022/06/22 10:38:52;;;;;;;3.13;2.43;;;23.70;80.30;;;;;;4989478;28;20558;-72
2022/06/22 10:47:28;;;;;;;2.27;2.27;;;23.90;81.50;;;;;;4970314;28;20462;-71
2022/06/22 10:50:20;;;;;;;3.43;2.63;;;23.80;80.40;;;;;;4990368;28;20482;-69
2022/06/22 10:53:14;;;;;;;2.70;2.60;;;23.80;81.20;;;;;;4988841;28;20473;-69
2022/06/22 10:55:52;;;;;;;2.30;2.13;;;23.70;81.10;;;;;;4983253;28;20795;-68
2022/06/22 10:58:39;;;;;;;3.03;2.80;;;23.70;81.60;;;;;;4981797;28;20469;-67
2022/06/22 11:01:21;;;;;;;3.70;3.60;;;23.80;80.90;;;;;;4990843;28;20470;-69
2022/06/22 11:04:19;;;;;;;2.97;2.77;;;23.90;84.20;;;;;;4987623;28;20470;-69
2022/06/22 11:07:15;;;;;;;3.67;3.20;;;23.90;82.60;;;;;;4980601;28;20554;-70
2022/06/22 11:09:58;;;;;;;3.37;3.17;;;24.00;84.30;;;;;;4993990;28;20563;-70
2022/06/22 11:12:51;;;;;;;3.30;3.10;;;24.00;84.60;;;;;;4993617;28;20455;-69
2022/06/22 11:15:42;;;;;;;3.63;3.43;;;24.00;84.40;;;;;;4984362;28;20558;-70
2022/06/22 11:18:34;;;;;;;3.03;2.73;;;24.10;82.30;;;;;;4982271;28;20468;-70
2022/06/22 11:21:12;;;;;;;3.37;3.07;;;24.20;82.80;;;;;;4988511;28;20470;-70
2022/06/22 11:23:52;;;;;;;2.37;2.37;;;24.30;82.60;;;;;;4993190;28;20459;-69
2022/06/22 11:32:30;;;;;;;2.70;2.50;;;24.20;83.40;;;;;;4989997;28;20975;-69
2022/06/22 11:35:32;;;;;;;3.10;2.90;;;24.20;83.50;;;;;;4984574;28;20455;-69
2022/06/22 11:38:18;;;;;;;3.27;2.97;;;24.10;83.10;;;;;;4989253;28;20475;-70
2022/06/22 11:41:17;;;;;;;3.03;2.90;;;24.00;83.20;;;;;;4986179;28;20486;-69
2022/06/22 11:44:04;;;;;;;2.80;2.60;;;24.10;82.60;;;;;;4992150;28;20587;-70
2022/06/22 11:46:37;;;;;;;3.17;3.03;;;24.20;80.00;;;;;;4993494;28;20489;-70
2022/06/22 11:49:27;;;;;;;3.07;2.90;;;24.10;80.40;;;;;;4992978;28;20780;-71
2022/06/22 11:52:20;;;;;;;2.97;2.63;;;24.00;81.30;;;;;;4974366;28;20464;-71
2022/06/22 11:55:09;;;;;;;1.90;1.90;;;24.00;79.60;;;;;;4974258;28;20523;-70
2022/06/22 11:58:02;;;;;;;2.70;2.50;;;24.10;76.40;;;;;;4980396;28;20947;-70
2022/06/22 12:00:40;;;;;;;2.83;2.63;;;24.10;74.20;;;;;;4986600;28;20495;-69
2022/06/22 12:03:41;;;;;;;2.10;2.00;;;24.10;74.30;;;;;;4986866;28;20460;-69
2022/06/22 12:06:38;;;;;;;2.70;2.57;;;24.20;73.40;;;;;;4974464;28;20487;-70
2022/06/22 12:09:23;;;;;;;2.87;2.77;;;24.30;77.50;;;;;;4976690;28;20497;-70
2022/06/22 12:12:26;;;;;;;2.80;2.70;;;24.50;81.90;;;;;;4978215;28;20478;-69
2022/06/22 12:15:09;;;;;;;2.47;2.33;;;24.40;78.90;;;;;;4993829;28;21002;-70
2022/06/22 12:17:53;;;;;;;2.87;2.60;;;24.40;78.30;;;;;;4992187;28;20471;-69
2022/06/22 12:20:36;;;;;;;2.30;2.20;;;24.70;77.90;;;;;;4985627;28;20489;-70
2022/06/22 12:23:13;;;;;;;3.70;3.30;;;24.90;77.10;;;;;;4974787;28;20476;-69
2022/06/22 12:25:53;;;;;;;2.60;2.50;;;24.70;78.70;;;;;;4973854;28;20496;-70
2022/06/22 12:28:36;;;;;;;2.77;2.67;;;24.80;76.50;;;;;;4985098;28;20535;-70
2022/06/22 12:31:10;;;;;;;3.40;3.20;;;24.90;76.60;;;;;;4979450;28;20964;-70
2022/06/22 12:33:43;;;;;;;3.37;3.17;;;24.70;77.20;;;;;;4973897;28;20474;-69
2022/06/22 12:36:14;;;;;;;3.77;3.60;;;24.80;78.00;;;;;;4980516;28;20486;-70
2022/06/22 12:38:45;;;;;;;3.90;3.70;;;24.80;78.50;;;;;;4983423;28;20482;-70
2022/06/22 12:41:27;;;;;;;5.43;3.53;;;24.70;78.50;;;;;;4977691;28;20459;-70
2022/06/22 12:44:22;;;;;;;3.20;3.00;;;24.70;78.40;;;;;;4978362;28;20489;-71
2022/06/22 12:47:02;;;;;;;3.07;2.83;;;24.70;77.50;;;;;;4992694;28;20491;-68
2022/06/22 12:49:52;;;;;;;2.63;2.50;;;24.70;77.10;;;;;;4983091;28;20479;-71
2022/06/22 12:52:24;;;;;;;3.80;3.17;;;24.70;77.00;;;;;;4993118;28;20478;-71
2022/06/22 12:54:58;;;;;;;4.27;3.40;;;24.70;78.10;;;;;;4993473;28;20466;-71
2022/06/22 12:57:30;;;;;;;3.67;3.47;;;24.70;78.80;;;;;;4991396;28;20466;-69
2022/06/22 13:00:03;;;;;;;5.00;3.17;;;24.70;77.20;;;;;;4988091;28;20583;-70
2022/06/22 13:02:32;;;;;;;3.80;3.30;;;24.70;78.90;;;;;;4973140;28;20786;-70
2022/06/22 13:05:06;;;;;;;3.23;3.13;;;24.80;78.50;;;;;;4974039;28;20467;-70
2022/06/22 13:07:40;;;;;;;3.63;3.40;;;24.90;78.60;;;;;;4976778;28;20954;-70
2022/06/22 13:10:08;;;;;;;5.30;3.23;;;24.90;77.30;;;;;;4986076;28;20484;-71
2022/06/22 13:12:43;;;;;;;3.37;3.27;;;25.00;78.30;;;;;;4980283;28;20447;-73
2022/06/22 13:15:20;;;;;;;2.83;2.73;;;25.00;77.90;;;;;;4991929;28;20954;-69
2022/06/22 13:17:55;;;;;;;6.80;3.40;;;25.10;77.60;;;;;;4981508;28;20483;-69
2022/06/22 13:20:47;;;;;;;3.07;2.90;;;25.00;76.80;;;;;;4982880;28;20494;-68
2022/06/22 13:23:23;;;;;;;3.20;3.00;;;25.00;78.00;;;;;;4976677;28;20452;-70
2022/06/22 13:25:56;;;;;;;3.43;2.97;;;25.10;78.40;;;;;;4991547;28;20486;-70
2022/06/22 13:28:29;;;;;;;3.43;3.33;;;25.20;77.70;;;;;;4987451;28;20921;-69
2022/06/22 13:30:59;;;;;;;3.43;3.40;;;25.20;77.50;;;;;;4986685;28;20495;-69
2022/06/22 13:33:32;;;;;;;3.63;3.53;;;25.20;79.00;;;;;;4984617;28;20822;-67
2022/06/22 13:36:04;;;;;;;3.63;3.30;;;25.30;79.40;;;;;;4972362;28;20774;-68
2022/06/22 13:38:53;;;;;;;4.43;4.07;;;25.30;78.40;;;;;;4981494;28;20471;-67
2022/06/22 13:41:34;;;;;;;4.10;3.77;;;25.30;76.60;;;;;;4986412;28;20467;-68
2022/06/22 13:44:19;;;;;;;3.80;3.60;;;25.10;77.10;;;;;;4985324;28;20546;-66
2022/06/22 13:47:03;;;;;;;5.00;4.63;;;25.10;79.20;;;;;;4981316;28;20545;-67
2022/06/22 13:49:41;;;;;;;5.20;4.10;;;25.00;78.90;;;;;;4989540;28;20482;-66
2022/06/22 13:52:21;;;;;;;5.30;3.97;;;25.10;80.20;;;;;;4983710;28;20545;-67
2022/06/22 13:55:16;;;;;;;3.83;3.60;;;25.20;79.60;;;;;;4979299;28;20958;-68
2022/06/22 13:57:48;;;;;;;3.20;3.00;;;25.30;79.70;;;;;;4978119;28;20475;-67
2022/06/22 14:00:18;;;;;;;3.40;3.20;;;25.40;79.70;;;;;;4982716;28;20490;-66
2022/06/22 14:02:58;;;;;;;3.70;3.60;;;25.50;78.60;;;;;;4981985;28;20466;-67
2022/06/22 14:05:30;;;;;;;4.33;4.03;;;25.50;77.80;;;;;;4989891;28;20463;-67
2022/06/22 14:08:07;;;;;;;4.30;4.10;;;25.50;78.00;;;;;;4989396;28;20467;-68
2022/06/22 14:10:40;;;;;;;3.83;3.50;;;25.60;78.50;;;;;;4980753;28;21013;-67
2022/06/22 14:13:14;;;;;;;3.63;3.33;;;25.60;77.70;;;;;;4990435;28;20455;-67
2022/06/22 14:15:46;;;;;;;3.77;3.57;;;25.60;77.40;;;;;;4973344;28;20466;-68
2022/06/22 14:18:21;;;;;;;4.53;4.13;;;25.50;77.70;;;;;;4979523;28;20490;-68
2022/06/22 14:21:06;;;;;;;4.63;4.30;;;25.50;77.30;;;;;;4982930;28;20489;-67
2022/06/22 14:23:37;;;;;;;3.67;3.47;;;25.40;78.80;;;;;;4971333;28;20474;-68
2022/06/22 14:26:38;;;;;;;7.43;4.30;;;25.50;80.00;;;;;;4975611;28;20464;-67
2022/06/22 14:29:12;;;;;;;4.23;4.03;;;25.60;78.60;;;;;;4982438;28;20487;-67
2022/06/22 14:31:47;;;;;;;3.30;3.20;;;25.60;80.60;;;;;;4989539;28;20462;-66
2022/06/22 14:34:28;;;;;;;3.53;3.33;;;25.80;79.60;;;;;;4979070;28;20451;-67
2022/06/22 14:37:01;;;;;;;3.90;3.67;;;25.80;77.50;;;;;;4988434;28;20459;-67
2022/06/22 14:39:36;;;;;;;3.53;3.37;;;25.60;77.50;;;;;;4988079;28;20487;-67
2022/06/22 14:42:12;;;;;;;3.00;2.90;;;25.40;77.50;;;;;;4979822;28;20477;-67
2022/06/22 14:44:45;;;;;;;6.43;3.30;;;25.40;77.70;;;;;;4985924;28;20462;-67
2022/06/22 14:47:23;;;;;;;3.97;3.57;;;25.60;77.00;;;;;;4987547;28;20504;-64
2022/06/22 14:50:01;;;;;;;3.03;2.93;;;25.80;77.50;;;;;;4975809;28;20484;-67
2022/06/22 14:52:40;;;;;;;2.97;2.77;;;25.80;75.60;;;;;;4987448;28;20971;-66
2022/06/22 14:55:17;;;;;;;2.53;2.40;;;26.00;75.30;;;;;;4989842;28;20955;-68
2022/06/22 14:57:50;;;;;;;2.70;2.50;;;26.20;74.50;;;;;;4981594;28;20458;-72
2022/06/22 15:00:29;;;;;;;2.73;2.63;;;26.30;73.50;;;;;;4986496;28;20835;-70
2022/06/22 15:03:06;;;;;;;3.33;3.03;;;26.40;73.10;;;;;;4986149;28;20563;-71
2022/06/22 15:05:40;;;;;;;2.47;2.37;;;26.40;71.90;;;;;;4982954;28;20450;-69
2022/06/22 15:08:15;;;;;;;2.70;2.60;;;26.30;70.30;;;;;;4988794;28;20485;-68
2022/06/22 15:10:46;;;;;;;3.83;3.63;;;26.20;69.30;;;;;;4982295;28;20482;-69
2022/06/22 15:13:18;;;;;;;1.93;1.93;;;26.00;69.50;;;;;;4982578;28;20460;-70
2022/06/22 15:15:49;;;;;;;2.57;2.47;;;26.10;69.90;;;;;;4990187;28;20963;-69
2022/06/22 15:18:33;;;;;;;1.80;1.80;;;26.20;67.90;;;;;;4989458;28;20463;-69
2022/06/22 15:21:05;;;;;;;1.83;1.70;;;26.00;68.20;;;;;;4983630;28;20489;-69
2022/06/22 15:23:40;;;;;;;1.70;1.70;;;26.10;67.10;;;;;;4984605;28;20463;-68
2022/06/22 15:26:25;;;;;;;2.23;1.83;;;26.00;66.50;;;;;;4976625;28;20759;-68
2022/06/22 15:28:55;;;;;;;2.27;2.20;;;25.90;66.20;;;;;;4986296;28;20943;-67
2022/06/22 15:31:34;;;;;;;2.27;2.07;;;26.00;65.40;;;;;;4984289;28;20463;-68
2022/06/22 15:34:32;;;;;;;3.33;2.57;;;26.10;67.80;;;;;;4991367;28;20528;-69
2022/06/22 15:37:31;;;;;;;1.97;1.87;;;26.10;66.60;;;;;;4993768;28;20693;-68
2022/06/22 15:40:14;;;;;;;2.93;2.40;;;26.10;66.80;;;;;;4982733;28;20507;-69
2022/06/22 15:42:46;;;;;;;2.50;2.30;;;26.10;67.30;;;;;;4993123;28;20466;-69
2022/06/22 15:45:26;;;;;;;2.50;2.20;;;26.20;67.80;;;;;;4991877;28;20894;-68
2022/06/22 15:47:56;;;;;;;1.83;1.73;;;26.30;68.30;;;;;;4989871;28;20593;-68
2022/06/22 15:50:28;;;;;;;2.30;2.20;;;26.30;67.40;;;;;;4985017;28;20491;-68
2022/06/22 15:53:00;;;;;;;2.50;1.73;;;26.20;66.50;;;;;;4993422;28;20462;-69
2022/06/22 15:55:35;;;;;;;1.80;1.73;;;26.10;66.00;;;;;;4993172;28;20481;-70
2022/06/22 15:58:13;;;;;;;2.00;1.90;;;26.10;64.90;;;;;;4990165;28;20458;-70
2022/06/22 16:00:46;;;;;;;2.03;2.03;;;26.30;66.80;;;;;;4979367;28;20502;-68
2022/06/22 16:03:21;;;;;;;2.33;2.20;;;26.30;66.90;;;;;;4990227;28;20447;-69
2022/06/22 16:05:54;;;;;;;2.40;2.20;;;26.40;64.70;;;;;;4974822;28;20971;-70
2022/06/22 16:08:29;;;;;;;1.90;1.90;;;26.30;64.90;;;;;;4989069;28;20959;-68
2022/06/22 16:14:01;;;;;;;2.37;1.97;;;26.30;65.10;;;;;;4993042;28;20434;-69
2022/06/22 16:16:34;;;;;;;2.00;1.93;;;26.40;64.20;;;;;;4993121;28;20458;-69
2022/06/22 16:19:05;;;;;;;3.47;3.17;;;26.50;63.40;;;;;;4979857;28;20610;-68
2022/06/22 16:21:36;;;;;;;2.47;2.47;;;26.50;65.90;;;;;;4984037;28;20467;-69
2022/06/22 16:24:10;;;;;;;3.10;3.00;;;26.50;68.00;;;;;;4992138;28;20481;-69
2022/06/22 16:26:44;;;;;;;2.40;2.37;;;26.30;68.50;;;;;;4974365;28;20815;-71
2022/06/22 16:29:16;;;;;;;2.70;2.60;;;26.20;69.00;;;;;;4986911;28;20488;-67
2022/06/22 16:31:50;;;;;;;2.73;2.53;;;26.20;68.30;;;;;;4991211;28;20601;-71
2022/06/22 16:34:25;;;;;;;3.17;2.97;;;26.10;66.90;;;;;;4988887;28;20474;-69
2022/06/22 16:36:57;;;;;;;3.10;2.90;;;26.10;67.90;;;;;;4983501;28;20466;-68
2022/06/22 16:39:42;;;;;;;3.23;3.10;;;26.10;69.10;;;;;;4988301;28;20494;-70
2022/06/22 16:42:19;;;;;;;3.37;3.10;;;26.00;71.80;;;;;;4977478;28;20463;-70
2022/06/22 16:44:57;;;;;;;5.80;3.70;;;25.90;72.70;;;;;;4986141;28;20474;-67
2022/06/22 16:47:25;;;;;;;3.47;3.20;;;25.80;74.60;;;;;;4980117;28;20663;-69
2022/06/22 16:49:55;;;;;;;5.43;2.90;;;25.80;75.10;;;;;;4983509;28;20483;-68
2022/06/22 16:52:26;;;;;;;3.30;3.20;;;25.90;74.40;;;;;;4992102;28;20466;-68
2022/06/22 16:55:07;;;;;;;3.40;3.30;;;26.00;76.80;;;;;;4992280;28;20549;-68
2022/06/22 16:57:43;;;;;;;4.47;3.70;;;25.90;77.30;;;;;;4991353;28;20469;-68
2022/06/22 17:00:14;;;;;;;4.00;3.70;;;25.90;78.60;;;;;;4984183;28;20577;-67
2022/06/22 17:02:47;;;;;;;3.10;2.90;;;25.80;79.90;;;;;;4991632;28;20555;-69
2022/06/22 17:05:25;;;;;;;4.00;3.67;;;25.80;80.40;;;;;;4992486;28;20459;-69
2022/06/22 17:07:57;;;;;;;3.47;3.23;;;25.70;81.70;;;;;;4990390;28;20504;-66
2022/06/22 17:10:33;;;;;;;3.30;3.20;;;25.70;81.30;;;;;;4990863;28;20491;-69
2022/06/22 17:13:04;;;;;;;3.60;3.33;;;25.60;81.70;;;;;;4978391;28;20482;-69
2022/06/22 17:15:50;;;;;;;4.93;3.70;;;25.60;81.60;;;;;;4973531;23;20535;-66
2022/06/22 17:18:25;;;;;;;3.00;2.80;;;25.50;82.50;;;;;;4951342;28;20473;-66
2022/06/22 17:20:56;;;;;;;2.83;2.73;;;25.50;83.20;;;;;;4957393;28;20464;-66
2022/06/22 17:23:31;;;;;;;3.67;3.37;;;25.60;83.70;;;;;;4945766;28;20878;-66
2022/06/22 17:26:07;;;;;;;3.33;3.03;;;25.50;84.30;;;;;;4933501;29;21000;-65
2022/06/22 17:28:41;;;;;;;3.30;3.10;;;25.40;84.50;;;;;;4915995;29;20501;-66
2022/06/22 17:31:14;;;;;;;3.40;3.20;;;25.40;84.20;;;;;;4912275;29;20563;-65
2022/06/22 17:33:43;;;;;;;4.13;3.20;;;25.50;85.10;;;;;;4923682;29;20476;-66
2022/06/22 17:36:33;;;;;;;3.20;2.90;;;25.50;85.20;;;;;;4926270;29;20493;-66
2022/06/22 17:39:21;;;;;;;2.90;2.90;;;25.40;85.50;;;;;;4914760;29;20587;-66
2022/06/22 17:41:56;;;;;;;3.67;3.23;;;25.50;86.50;;;;;;4913393;29;20574;-66
2022/06/22 17:44:34;;;;;;;3.30;3.10;;;25.30;88.00;;;;;;4923259;29;20826;-66
2022/06/22 17:47:14;;;;;;;3.70;3.40;;;25.30;89.10;;;;;;4913790;29;20488;-66
2022/06/22 17:49:45;;;;;;;3.17;3.03;;;25.10;88.70;;;;;;4919487;29;20623;-67
2022/06/22 17:52:18;;;;;;;3.20;3.10;;;25.00;89.80;;;;;;4927484;29;20895;-66
2022/06/22 17:54:48;;;;;;;3.70;3.50;;;25.00;90.30;;;;;;4913641;29;21001;-66
2022/06/22 17:57:18;;;;;;;3.90;3.70;;;25.00;90.50;;;;;;4923370;29;20490;-66
2022/06/22 17:59:49;;;;;;;3.50;3.40;;;25.00;90.60;;;;;;4926848;29;20481;-66